createdAt,value
2018-10-02T00:00:51.780Z,940.65
2018-10-02T00:01:52.286Z,940.67
2018-10-02T00:02:52.795Z,940.69
2018-10-02T00:03:53.302Z,940.72
2018-10-02T00:04:54.091Z,940.71
2018-10-02T00:05:55.322Z,940.75
2018-10-02T00:06:56.385Z,940.75
2018-10-02T00:07:56.727Z,940.76
2018-10-02T00:08:57.512Z,940.71
2018-10-02T00:09:58.299Z,940.69
2018-10-02T00:10:58.671Z,940.71
2018-10-02T00:11:59.457Z,940.71
2018-10-02T00:13:00.272Z,940.68
2018-10-02T00:14:01.059Z,940.67
2018-10-02T00:15:01.845Z,940.7
2018-10-02T00:16:02.193Z,940.69
2018-10-02T00:17:03.423Z,940.68
2018-10-02T00:18:03.931Z,940.7
2018-10-02T00:19:04.998Z,940.68
2018-10-02T00:20:05.506Z,940.66
2018-10-02T00:21:06.185Z,940.7
2018-10-02T00:22:06.528Z,940.68
2018-10-02T00:23:06.871Z,940.62
2018-10-02T00:24:07.935Z,940.63
2018-10-02T00:25:08.718Z,940.67
2018-10-02T00:26:09.222Z,940.71
2018-10-02T00:27:10.003Z,940.68
2018-10-02T00:28:10.897Z,940.67
2018-10-02T00:29:11.952Z,940.65
2018-10-02T00:30:12.291Z,940.7
2018-10-02T00:31:13.354Z,940.64
2018-10-02T00:32:14.593Z,940.7
2018-10-02T00:33:15.245Z,940.72
2018-10-02T00:34:16.306Z,940.78
2018-10-02T00:35:16.808Z,940.75
2018-10-02T00:36:18.034Z,940.72
2018-10-02T00:37:19.092Z,940.71
2018-10-02T00:38:19.438Z,940.7
2018-10-02T00:39:20.513Z,940.74
2018-10-02T00:40:21.288Z,940.7
2018-10-02T00:41:22.349Z,940.72
2018-10-02T00:42:22.850Z,940.74
2018-10-02T00:43:23.358Z,940.75
2018-10-02T00:44:23.697Z,940.73
2018-10-02T00:45:24.481Z,940.71
2018-10-02T00:46:25.540Z,940.71
2018-10-02T00:47:26.321Z,940.73
2018-10-02T00:48:27.376Z,940.7
2018-10-02T00:49:28.478Z,940.77
2018-10-02T00:50:28.980Z,940.77
2018-10-02T00:51:29.933Z,940.71
2018-10-02T00:52:30.995Z,940.69
2018-10-02T00:53:31.883Z,940.75
2018-10-02T00:54:32.500Z,940.75
2018-10-02T00:55:32.832Z,940.79
2018-10-02T00:56:33.888Z,940.75
2018-10-02T00:57:35.111Z,940.77
2018-10-02T00:58:36.337Z,940.78
2018-10-02T00:59:37.116Z,940.78
2018-10-02T01:00:37.902Z,940.77
2018-10-02T01:01:39.004Z,940.81
2018-10-02T01:02:39.788Z,940.79
2018-10-02T01:03:40.850Z,940.81
2018-10-02T01:04:41.348Z,940.76
2018-10-02T01:05:42.691Z,940.78
2018-10-02T01:06:43.748Z,940.73
2018-10-02T01:07:44.525Z,940.78
2018-10-02T01:08:45.862Z,940.76
2018-10-02T01:09:46.198Z,940.8
2018-10-02T01:10:46.973Z,940.78
2018-10-02T01:11:47.317Z,940.76
2018-10-02T01:12:48.816Z,940.72
2018-10-02T01:13:49.436Z,940.78
2018-10-02T01:14:50.221Z,940.77
2018-10-02T01:15:50.558Z,940.76
2018-10-02T01:16:51.613Z,940.87
2018-10-02T01:17:52.393Z,940.92
2018-10-02T01:18:53.007Z,940.86
2018-10-02T01:19:54.224Z,940.92
2018-10-02T01:20:54.676Z,940.89
2018-10-02T01:21:55.489Z,940.93
2018-10-02T01:22:55.828Z,940.91
2018-10-02T01:23:56.330Z,940.88
2018-10-02T01:24:56.663Z,940.92
2018-10-02T01:25:57.441Z,940.96
2018-10-02T01:26:58.502Z,940.96
2018-10-02T01:27:58.834Z,940.98
2018-10-02T01:28:59.464Z,940.92
2018-10-02T01:30:00.519Z,940.93
2018-10-02T01:31:01.416Z,940.95
2018-10-02T01:32:01.927Z,940.95
2018-10-02T01:33:02.709Z,940.93
2018-10-02T01:34:04.209Z,940.95
2018-10-02T01:35:05.273Z,940.95
2018-10-02T01:36:06.052Z,940.99
2018-10-02T01:37:07.387Z,940.99
2018-10-02T01:38:07.889Z,940.92
2018-10-02T01:39:08.507Z,940.91
2018-10-02T01:40:09.288Z,940.96
2018-10-02T01:41:10.516Z,940.96
2018-10-02T01:42:11.021Z,940.93
2018-10-02T01:43:11.803Z,940.91
2018-10-02T01:44:12.307Z,940.89
2018-10-02T01:45:13.090Z,940.92
2018-10-02T01:46:13.428Z,940.94
2018-10-02T01:47:14.374Z,940.95
2018-10-02T01:48:15.441Z,940.96
2018-10-02T01:49:16.223Z,940.99
2018-10-02T01:50:17.450Z,941
2018-10-02T01:51:18.233Z,940.93
2018-10-02T01:52:19.468Z,940.98
2018-10-02T01:53:20.523Z,941.01
2018-10-02T01:54:22.062Z,941
2018-10-02T01:55:23.124Z,941
2018-10-02T01:56:24.182Z,941.04
2018-10-02T01:57:24.963Z,941.03
2018-10-02T01:58:26.191Z,941.04
2018-10-02T01:59:27.253Z,941.06
2018-10-02T02:00:27.864Z,941.04
2018-10-02T02:01:28.205Z,941.07
2018-10-02T02:02:29.549Z,941.12
2018-10-02T02:03:30.603Z,941.09
2018-10-02T02:04:31.383Z,941.11
2018-10-02T02:05:32.439Z,941.12
2018-10-02T02:06:32.941Z,941.12
2018-10-02T02:07:33.782Z,941.09
2018-10-02T02:08:34.290Z,941.1
2018-10-02T02:09:35.068Z,941.11
2018-10-02T02:10:36.124Z,941.17
2018-10-02T02:11:36.624Z,941.14
2018-10-02T02:12:37.140Z,941.13
2018-10-02T02:13:37.639Z,941.15
2018-10-02T02:14:38.416Z,941.1
2018-10-02T02:15:39.473Z,941.15
2018-10-02T02:16:40.254Z,941.13
2018-10-02T02:17:41.311Z,941.18
2018-10-02T02:18:42.372Z,941.2
2018-10-02T02:19:43.426Z,941.17
2018-10-02T02:20:44.484Z,941.14
2018-10-02T02:21:45.265Z,941.19
2018-10-02T02:22:46.625Z,941.2
2018-10-02T02:23:47.122Z,941.19
2018-10-02T02:24:47.797Z,941.23
2018-10-02T02:25:48.419Z,941.19
2018-10-02T02:26:48.747Z,941.16
2018-10-02T02:27:49.808Z,941.17
2018-10-02T02:28:50.310Z,941.19
2018-10-02T02:29:51.365Z,941.23
2018-10-02T02:30:52.491Z,941.22
2018-10-02T02:31:53.791Z,941.22
2018-10-02T02:32:54.723Z,941.22
2018-10-02T02:33:55.504Z,941.2
2018-10-02T02:34:56.284Z,941.23
2018-10-02T02:35:57.453Z,941.17
2018-10-02T02:36:57.809Z,941.29
2018-10-02T02:37:58.870Z,941.26
2018-10-02T02:38:59.928Z,941.23
2018-10-02T02:40:00.266Z,941.29
2018-10-02T02:41:01.050Z,941.26
2018-10-02T02:42:01.557Z,941.3
2018-10-02T02:43:02.642Z,941.27
2018-10-02T02:44:03.534Z,941.29
2018-10-02T02:45:03.872Z,941.28
2018-10-02T02:46:04.762Z,941.28
2018-10-02T02:47:05.375Z,941.29
2018-10-02T02:48:06.434Z,941.3
2018-10-02T02:49:07.767Z,941.34
2018-10-02T02:50:08.270Z,941.32
2018-10-02T02:51:09.046Z,941.31
2018-10-02T02:52:10.104Z,941.33
2018-10-02T02:53:10.879Z,941.32
2018-10-02T02:54:11.186Z,941.35
2018-10-02T02:55:12.538Z,941.36
2018-10-02T02:56:13.038Z,941.4
2018-10-02T02:57:14.207Z,941.35
2018-10-02T02:58:15.097Z,941.36
2018-10-02T02:59:16.156Z,941.33
2018-10-02T03:00:16.497Z,941.34
2018-10-02T03:01:17.394Z,941.34
2018-10-02T03:02:18.455Z,941.35
2018-10-02T03:03:19.959Z,941.39
2018-10-02T03:04:21.017Z,941.37
2018-10-02T03:05:22.082Z,941.37
2018-10-02T03:06:22.582Z,941.38
2018-10-02T03:07:22.923Z,941.42
2018-10-02T03:08:23.984Z,941.46
2018-10-02T03:09:24.875Z,941.47
2018-10-02T03:10:25.939Z,941.46
2018-10-02T03:11:27.277Z,941.49
2018-10-02T03:12:28.173Z,941.5
2018-10-02T03:13:29.413Z,941.52
2018-10-02T03:14:30.194Z,941.55
2018-10-02T03:15:31.257Z,941.54
2018-10-02T03:16:31.872Z,941.56
2018-10-02T03:17:32.929Z,941.59
2018-10-02T03:18:33.263Z,941.56
2018-10-02T03:19:34.041Z,941.61
2018-10-02T03:20:34.551Z,941.61
2018-10-02T03:21:35.072Z,941.59
2018-10-02T03:22:35.850Z,941.61
2018-10-02T03:23:37.225Z,941.65
2018-10-02T03:24:38.009Z,941.64
2018-10-02T03:25:38.622Z,941.61
2018-10-02T03:26:39.677Z,941.62
2018-10-02T03:27:40.297Z,941.63
2018-10-02T03:28:40.923Z,941.64
2018-10-02T03:29:41.982Z,941.66
2018-10-02T03:30:42.325Z,941.65
2018-10-02T03:31:43.235Z,941.7
2018-10-02T03:32:44.573Z,941.67
2018-10-02T03:33:45.355Z,941.68
2018-10-02T03:34:46.525Z,941.7
2018-10-02T03:35:46.868Z,941.69
2018-10-02T03:36:47.647Z,941.65
2018-10-02T03:37:48.454Z,941.67
2018-10-02T03:38:48.839Z,941.7
2018-10-02T03:39:49.180Z,941.67
2018-10-02T03:40:49.960Z,941.7
2018-10-02T03:41:50.771Z,941.7
2018-10-02T03:42:51.389Z,941.73
2018-10-02T03:43:52.625Z,941.69
2018-10-02T03:44:53.245Z,941.71
2018-10-02T03:45:54.585Z,941.68
2018-10-02T03:46:55.641Z,941.69
2018-10-02T03:47:56.143Z,941.67
2018-10-02T03:48:57.687Z,941.69
2018-10-02T03:49:57.981Z,941.7
2018-10-02T03:50:58.595Z,941.69
2018-10-02T03:52:00.050Z,941.67
2018-10-02T03:53:01.395Z,941.7
2018-10-02T03:54:01.928Z,941.7
2018-10-02T03:55:02.706Z,941.72
2018-10-02T03:56:03.208Z,941.7
2018-10-02T03:57:04.380Z,941.71
2018-10-02T03:58:04.722Z,941.66
2018-10-02T03:59:05.168Z,941.7
2018-10-02T04:00:05.948Z,941.7
2018-10-02T04:01:06.856Z,941.71
2018-10-02T04:02:07.744Z,941.71
2018-10-02T04:03:08.357Z,941.77
2018-10-02T04:04:09.221Z,941.72
2018-10-02T04:05:09.729Z,941.72
2018-10-02T04:06:10.816Z,941.68
2018-10-02T04:07:11.880Z,941.69
2018-10-02T04:08:12.492Z,941.74
2018-10-02T04:09:12.831Z,941.72
2018-10-02T04:10:13.720Z,941.73
2018-10-02T04:11:14.062Z,941.76
2018-10-02T04:12:15.236Z,941.79
2018-10-02T04:13:16.047Z,941.8
2018-10-02T04:14:01.374Z,941.82
2018-10-02T04:15:02.183Z,941.86
2018-10-02T04:16:03.510Z,941.89
2018-10-02T04:17:04.855Z,941.92
2018-10-02T04:18:05.914Z,941.9
2018-10-02T04:19:06.246Z,941.88
2018-10-02T04:20:07.430Z,941.92
2018-10-02T04:21:08.212Z,941.89
2018-10-02T04:22:09.274Z,941.91
2018-10-02T04:23:09.609Z,941.85
2018-10-02T04:24:10.228Z,941.83
2018-10-02T04:25:11.013Z,941.83
2018-10-02T04:26:12.071Z,941.81
2018-10-02T04:27:13.129Z,941.76
2018-10-02T04:28:14.572Z,941.76
2018-10-02T04:29:15.617Z,941.8
2018-10-02T04:30:16.398Z,941.81
2018-10-02T04:31:16.732Z,941.81
2018-10-02T04:32:17.246Z,941.83
2018-10-02T04:33:18.027Z,941.83
2018-10-02T04:34:19.619Z,941.78
2018-10-02T04:35:20.588Z,941.82
2018-10-02T04:36:21.642Z,941.84
2018-10-02T04:37:22.256Z,941.9
2018-10-02T04:38:22.758Z,941.91
2018-10-02T04:39:23.146Z,941.9
2018-10-02T04:40:24.362Z,941.88
2018-10-02T04:41:25.023Z,941.9
2018-10-02T04:42:25.629Z,941.9
2018-10-02T04:43:26.685Z,941.96
2018-10-02T04:44:27.743Z,941.93
2018-10-02T04:45:28.965Z,941.9
2018-10-02T04:46:29.470Z,941.88
2018-10-02T04:47:30.250Z,941.91
2018-10-02T04:48:31.595Z,941.94
2018-10-02T04:49:32.374Z,941.98
2018-10-02T04:50:33.155Z,941.94
2018-10-02T04:51:33.934Z,941.96
2018-10-02T04:52:34.999Z,941.99
2018-10-02T04:53:36.057Z,941.99
2018-10-02T04:54:36.560Z,941.98
2018-10-02T04:55:36.891Z,941.98
2018-10-02T04:56:38.247Z,941.97
2018-10-02T04:57:39.598Z,941.97
2018-10-02T04:58:40.100Z,942
2018-10-02T04:59:40.880Z,942
2018-10-02T05:00:41.662Z,941.98
2018-10-02T05:01:42.441Z,941.96
2018-10-02T05:02:43.497Z,942.02
2018-10-02T05:03:44.115Z,941.98
2018-10-02T05:04:44.617Z,941.96
2018-10-02T05:05:45.595Z,942.01
2018-10-02T05:06:46.376Z,941.98
2018-10-02T05:07:46.878Z,941.98
2018-10-02T05:08:47.757Z,941.96
2018-10-02T05:09:48.415Z,941.95
2018-10-02T05:10:48.755Z,941.94
2018-10-02T05:11:49.092Z,941.94
2018-10-02T05:12:50.151Z,941.94
2018-10-02T05:13:50.655Z,941.94
2018-10-02T05:14:51.441Z,941.92
2018-10-02T05:15:52.231Z,941.93
2018-10-02T05:16:52.571Z,941.94
2018-10-02T05:17:53.354Z,941.97
2018-10-02T05:18:54.136Z,942.02
2018-10-02T05:19:54.920Z,942.02
2018-10-02T05:20:55.430Z,942.05
2018-10-02T05:21:56.495Z,942.06
2018-10-02T05:22:57.284Z,942.04
2018-10-02T05:23:58.071Z,942.05
2018-10-02T05:24:59.410Z,942.07
2018-10-02T05:26:00.514Z,942.01
2018-10-02T05:27:01.354Z,942.03
2018-10-02T05:28:02.430Z,942.03
2018-10-02T05:29:02.934Z,942.02
2018-10-02T05:30:03.569Z,942.04
2018-10-02T05:31:04.790Z,942.02
2018-10-02T05:32:05.297Z,942
2018-10-02T05:33:06.074Z,942.01
2018-10-02T05:34:07.135Z,942
2018-10-02T05:35:07.690Z,942.01
2018-10-02T05:36:08.812Z,941.98
2018-10-02T05:37:09.596Z,941.99
2018-10-02T05:38:10.657Z,941.99
2018-10-02T05:39:11.166Z,942
2018-10-02T05:40:12.229Z,941.99
2018-10-02T05:41:13.023Z,942.02
2018-10-02T05:42:13.364Z,942
2018-10-02T05:43:14.151Z,942.01
2018-10-02T05:44:14.657Z,942.01
2018-10-02T05:45:15.890Z,942
2018-10-02T05:46:16.697Z,942.07
2018-10-02T05:47:17.204Z,942.03
2018-10-02T05:48:17.866Z,942.03
2018-10-02T05:49:19.379Z,942.05
2018-10-02T05:50:19.750Z,942.04
2018-10-02T05:51:20.487Z,942.07
2018-10-02T05:52:20.842Z,942.08
2018-10-02T05:53:22.283Z,942.04
2018-10-02T05:54:22.789Z,942.06
2018-10-02T05:55:23.303Z,942.06
2018-10-02T05:56:23.710Z,942.13
2018-10-02T05:57:24.778Z,942.16
2018-10-02T05:58:25.884Z,942.16
2018-10-02T05:59:26.569Z,942.19
2018-10-02T06:00:27.685Z,942.18
2018-10-02T06:01:28.473Z,942.17
2018-10-02T06:02:29.850Z,942.18
2018-10-02T06:03:30.568Z,942.18
2018-10-02T06:04:31.078Z,942.21
2018-10-02T06:05:32.215Z,942.19
2018-10-02T06:06:33.012Z,942.23
2018-10-02T06:07:33.797Z,942.22
2018-10-02T06:08:35.028Z,942.28
2018-10-02T06:09:36.330Z,942.27
2018-10-02T06:10:37.513Z,942.25
2018-10-02T06:11:38.105Z,942.25
2018-10-02T06:12:38.620Z,942.3
2018-10-02T06:13:39.892Z,942.32
2018-10-02T06:14:40.397Z,942.33
2018-10-02T06:15:40.909Z,942.32
2018-10-02T06:16:41.469Z,942.35
2018-10-02T06:17:41.812Z,942.36
2018-10-02T06:18:43.025Z,942.39
2018-10-02T06:19:43.759Z,942.41
2018-10-02T06:20:44.542Z,942.43
2018-10-02T06:21:45.604Z,942.43
2018-10-02T06:22:46.735Z,942.45
2018-10-02T06:23:47.939Z,942.49
2018-10-02T06:24:49.544Z,942.46
2018-10-02T06:25:50.886Z,942.46
2018-10-02T06:26:51.841Z,942.4
2018-10-02T06:27:52.908Z,942.4
2018-10-02T06:28:53.530Z,942.4
2018-10-02T06:29:54.322Z,942.41
2018-10-02T06:30:54.855Z,942.43
2018-10-02T06:31:55.245Z,942.47
2018-10-02T06:32:55.864Z,942.49
2018-10-02T06:33:56.650Z,942.49
2018-10-02T06:34:57.269Z,942.48
2018-10-02T06:35:58.063Z,942.47
2018-10-02T06:36:58.614Z,942.5
2018-10-02T06:37:59.812Z,942.53
2018-10-02T06:39:01.231Z,942.57
2018-10-02T06:40:01.568Z,942.62
2018-10-02T06:41:02.364Z,942.62
2018-10-02T06:42:02.863Z,942.62
2018-10-02T06:43:03.932Z,942.62
2018-10-02T06:44:05.303Z,942.57
2018-10-02T06:45:07.034Z,942.54
2018-10-02T06:46:08.235Z,942.53
2018-10-02T06:47:08.749Z,942.53
2018-10-02T06:48:09.448Z,942.52
2018-10-02T06:49:09.834Z,942.55
2018-10-02T06:50:10.194Z,942.52
2018-10-02T06:51:11.384Z,942.53
2018-10-02T06:52:13.012Z,942.5
2018-10-02T06:53:14.059Z,942.51
2018-10-02T06:54:14.869Z,942.57
2018-10-02T06:55:15.941Z,942.59
2018-10-02T06:56:16.453Z,942.62
2018-10-02T06:57:17.531Z,942.64
2018-10-02T06:58:18.162Z,942.68
2018-10-02T06:59:18.950Z,942.69
2018-10-02T07:00:20.376Z,942.67
2018-10-02T07:01:21.144Z,942.67
2018-10-02T07:02:22.353Z,942.68
2018-10-02T07:03:23.152Z,942.71
2018-10-02T07:04:23.668Z,942.68
2018-10-02T07:05:24.183Z,942.73
2018-10-02T07:06:25.249Z,942.79
2018-10-02T07:07:25.955Z,942.84
2018-10-02T07:08:28.755Z,942.88
2018-10-02T07:09:29.631Z,942.87
2018-10-02T07:10:30.839Z,942.91
2018-10-02T07:11:31.347Z,942.92
2018-10-02T07:12:32.449Z,942.88
2018-10-02T07:13:33.574Z,942.89
2018-10-02T07:14:34.578Z,942.91
2018-10-02T07:15:35.696Z,942.88
2018-10-02T07:16:36.200Z,942.88
2018-10-02T07:17:37.801Z,942.93
2018-10-02T07:18:38.414Z,942.94
2018-10-02T07:19:39.480Z,942.97
2018-10-02T07:20:40.387Z,943
2018-10-02T07:21:41.376Z,943.03
2018-10-02T07:22:41.913Z,943.01
2018-10-02T07:23:42.996Z,943.04
2018-10-02T07:24:43.970Z,943.05
2018-10-02T07:25:44.362Z,943.06
2018-10-02T07:26:44.988Z,943.06
2018-10-02T07:27:46.149Z,943.06
2018-10-02T07:28:47.286Z,943.08
2018-10-02T07:29:48.389Z,943.06
2018-10-02T07:30:49.629Z,942.97
2018-10-02T07:31:49.907Z,942.98
2018-10-02T07:32:50.717Z,942.97
2018-10-02T07:33:51.700Z,942.96
2018-10-02T07:34:52.102Z,942.96
2018-10-02T07:35:52.727Z,942.97
2018-10-02T07:36:53.804Z,942.95
2018-10-02T07:37:54.545Z,942.92
2018-10-02T07:38:55.987Z,942.94
2018-10-02T07:39:56.162Z,942.96
2018-10-02T07:40:57.226Z,942.93
2018-10-02T07:41:57.984Z,942.97
2018-10-02T07:42:58.421Z,943
2018-10-02T07:43:59.654Z,942.99
2018-10-02T07:45:01.244Z,943.07
2018-10-02T07:46:01.866Z,943.05
2018-10-02T07:47:02.652Z,943.08
2018-10-02T07:48:03.863Z,943.13
2018-10-02T07:49:04.871Z,943.16
2018-10-02T07:50:05.659Z,943.17
2018-10-02T07:51:06.185Z,943.11
2018-10-02T07:52:07.271Z,943.11
2018-10-02T07:53:08.060Z,943.16
2018-10-02T07:54:08.685Z,943.12
2018-10-02T07:55:09.164Z,943.17
2018-10-02T07:56:10.234Z,943.22
2018-10-02T07:57:11.045Z,943.22
2018-10-02T07:58:11.715Z,943.22
2018-10-02T07:59:12.257Z,943.22
2018-10-02T08:00:12.702Z,943.25
2018-10-02T08:01:13.324Z,943.28
2018-10-02T08:02:13.629Z,943.25
2018-10-02T08:03:15.082Z,943.3
2018-10-02T08:04:16.425Z,943.25
2018-10-02T08:05:17.726Z,943.26
2018-10-02T08:06:18.905Z,943.31
2018-10-02T08:07:19.319Z,943.35
2018-10-02T08:08:20.395Z,943.31
2018-10-02T08:09:20.853Z,943.34
2018-10-02T08:10:21.640Z,943.35
2018-10-02T08:11:22.726Z,943.37
2018-10-02T08:12:24.319Z,943.43
2018-10-02T08:13:25.222Z,943.41
2018-10-02T08:14:26.423Z,943.39
2018-10-02T08:15:26.938Z,943.42
2018-10-02T08:16:27.286Z,943.41
2018-10-02T08:17:28.401Z,943.39
2018-10-02T08:18:29.109Z,943.39
2018-10-02T08:19:30.175Z,943.35
2018-10-02T08:20:31.415Z,943.34
2018-10-02T08:21:32.507Z,943.29
2018-10-02T08:22:33.740Z,943.32
2018-10-02T08:23:34.903Z,943.35
2018-10-02T08:24:35.851Z,943.33
2018-10-02T08:25:36.652Z,943.33
2018-10-02T08:26:37.800Z,943.32
2018-10-02T08:27:38.126Z,943.27
2018-10-02T08:28:38.785Z,943.25
2018-10-02T08:29:40.377Z,943.21
2018-10-02T08:31:42.813Z,943.21
2018-10-02T08:32:43.720Z,943.19
2018-10-02T08:33:44.336Z,943.16
2018-10-02T08:34:45.254Z,943.19
2018-10-02T08:35:46.739Z,943.23
2018-10-02T08:36:47.305Z,943.23
2018-10-02T08:37:48.100Z,943.17
2018-10-02T08:38:49.063Z,943.2
2018-10-02T08:39:49.921Z,943.2
2018-10-02T08:40:50.985Z,943.21
2018-10-02T08:41:52.041Z,943.23
2018-10-02T08:42:52.934Z,943.22
2018-10-02T08:43:54.221Z,943.28
2018-10-02T08:44:55.210Z,943.26
2018-10-02T08:45:56.191Z,943.25
2018-10-02T08:46:56.977Z,943.33
2018-10-02T08:47:57.617Z,943.28
2018-10-02T08:48:58.025Z,943.29
2018-10-02T08:49:58.861Z,943.24
2018-10-02T08:51:01.156Z,943.22
2018-10-02T08:51:12.768Z,943.23
2018-10-02T08:51:24.885Z,943.22
2018-10-02T08:52:24.965Z,943.19
2018-10-02T08:53:25.865Z,943.2
2018-10-02T08:54:26.902Z,943.18
2018-10-02T08:55:27.250Z,943.2
2018-10-02T08:56:28.483Z,943.2
2018-10-02T08:57:29.553Z,943.17
2018-10-02T08:58:29.896Z,943.2
2018-10-02T08:59:30.464Z,943.22
2018-10-02T09:00:31.563Z,943.24
2018-10-02T09:01:32.598Z,943.23
2018-10-02T09:02:32.909Z,943.31
2018-10-02T09:03:33.425Z,943.28
2018-10-02T09:04:34.496Z,943.3
2018-10-02T09:05:35.293Z,943.31
2018-10-02T09:06:36.600Z,943.36
2018-10-02T09:07:37.447Z,943.32
2018-10-02T09:08:38.523Z,943.34
2018-10-02T09:09:39.316Z,943.4
2018-10-02T09:10:40.190Z,943.42
2018-10-02T09:11:40.629Z,943.44
2018-10-02T09:12:41.449Z,943.49
2018-10-02T09:13:42.530Z,943.45
2018-10-02T09:14:43.268Z,943.42
2018-10-02T09:15:44.461Z,943.42
2018-10-02T09:16:45.423Z,943.37
2018-10-02T09:17:45.921Z,943.31
2018-10-02T09:18:47.332Z,943.31
2018-10-02T09:19:48.202Z,943.3
2018-10-02T09:20:48.995Z,943.35
2018-10-02T09:21:49.354Z,943.35
2018-10-02T09:22:50.861Z,943.36
2018-10-02T09:23:51.382Z,943.36
2018-10-02T09:24:52.498Z,943.33
2018-10-02T09:25:52.932Z,943.36
2018-10-02T09:26:53.560Z,943.38
2018-10-02T09:27:55.046Z,943.38
2018-10-02T09:28:55.374Z,943.48
2018-10-02T09:29:56.160Z,943.49
2018-10-02T09:30:57.670Z,943.51
2018-10-02T09:31:58.721Z,943.52
2018-10-02T09:32:59.243Z,943.53
2018-10-02T09:34:00.743Z,943.57
2018-10-02T09:35:01.223Z,943.56
2018-10-02T09:36:02.300Z,943.58
2018-10-02T09:37:03.498Z,943.57
2018-10-02T09:38:04.380Z,943.56
2018-10-02T09:39:05.447Z,943.53
2018-10-02T09:40:06.616Z,943.56
2018-10-02T09:41:07.395Z,943.6
2018-10-02T09:42:07.757Z,943.55
2018-10-02T09:43:08.546Z,943.55
2018-10-02T09:44:09.340Z,943.53
2018-10-02T09:45:09.853Z,943.55
2018-10-02T09:46:10.946Z,943.49
2018-10-02T09:47:11.460Z,943.44
2018-10-02T09:48:12.529Z,943.44
2018-10-02T09:49:13.391Z,943.4
2018-10-02T09:50:14.183Z,943.35
2018-10-02T09:51:14.701Z,943.38
2018-10-02T09:52:15.793Z,943.41
2018-10-02T09:53:16.869Z,943.42
2018-10-02T09:54:17.659Z,943.42
2018-10-02T09:55:18.843Z,943.43
2018-10-02T09:56:19.638Z,943.39
2018-10-02T09:57:20.824Z,943.38
2018-10-02T09:58:21.632Z,943.37
2018-10-02T09:59:22.381Z,943.41
2018-10-02T10:00:23.535Z,943.41
2018-10-02T10:01:24.736Z,943.4
2018-10-02T10:02:25.898Z,943.42
2018-10-02T10:03:26.846Z,943.43
2018-10-02T10:04:27.544Z,943.46
2018-10-02T10:05:29.042Z,943.39
2018-10-02T10:06:30.034Z,943.38
2018-10-02T10:07:30.862Z,943.36
2018-10-02T10:08:31.939Z,943.32
2018-10-02T10:09:33.186Z,943.35
2018-10-02T10:10:34.893Z,943.33
2018-10-02T10:11:35.969Z,943.37
2018-10-02T10:12:36.981Z,943.35
2018-10-02T10:13:38.194Z,943.41
2018-10-02T10:14:38.839Z,943.37
2018-10-02T10:15:39.367Z,943.37
2018-10-02T10:16:40.610Z,943.35
2018-10-02T10:17:41.528Z,943.38
2018-10-02T10:18:42.602Z,943.38
2018-10-02T10:19:45.220Z,943.36
2018-10-02T10:20:45.892Z,943.39
2018-10-02T10:21:46.681Z,943.42
2018-10-02T10:22:47.560Z,943.38
2018-10-02T10:23:48.754Z,943.41
2018-10-02T10:24:49.255Z,943.38
2018-10-02T10:25:50.059Z,943.3
2018-10-02T10:26:50.692Z,943.31
2018-10-02T10:27:51.044Z,943.32
2018-10-02T10:28:52.127Z,943.35
2018-10-02T10:29:52.542Z,943.35
2018-10-02T10:30:53.066Z,943.38
2018-10-02T10:31:53.589Z,943.34
2018-10-02T10:32:54.112Z,943.36
2018-10-02T10:33:54.858Z,943.34
2018-10-02T10:34:56.430Z,943.36
2018-10-02T10:35:57.034Z,943.34
2018-10-02T10:36:57.356Z,943.29
2018-10-02T10:37:58.326Z,943.35
2018-10-02T10:38:58.744Z,943.26
2018-10-02T10:39:59.700Z,943.24
2018-10-02T10:41:00.924Z,943.23
2018-10-02T10:42:01.388Z,943.23
2018-10-02T10:43:01.904Z,943.16
2018-10-02T10:44:03.437Z,943.23
2018-10-02T10:45:04.510Z,943.22
2018-10-02T10:46:05.783Z,943.22
2018-10-02T10:47:06.762Z,943.19
2018-10-02T10:48:07.834Z,943.21
2018-10-02T10:49:08.389Z,943.16
2018-10-02T10:50:08.912Z,943.17
2018-10-02T10:51:10.517Z,943.15
2018-10-02T10:52:10.838Z,943.17
2018-10-02T10:53:11.911Z,943.14
2018-10-02T10:54:13.162Z,943.14
2018-10-02T10:55:13.837Z,943.14
2018-10-02T10:56:15.047Z,943.13
2018-10-02T10:57:15.588Z,943.18
2018-10-02T10:58:16.789Z,943.2
2018-10-02T10:59:17.933Z,943.19
2018-10-02T11:00:18.722Z,943.16
2018-10-02T11:01:19.510Z,943.13
2018-10-02T11:02:20.476Z,943.06
2018-10-02T11:03:21.579Z,943.13
2018-10-02T11:04:22.968Z,943.09
2018-10-02T11:05:23.493Z,943.07
2018-10-02T11:06:24.565Z,943.06
2018-10-02T11:07:25.086Z,943.01
2018-10-02T11:08:26.232Z,942.96
2018-10-02T11:09:27.218Z,942.97
2018-10-02T11:10:28.423Z,942.95
2018-10-02T11:11:29.212Z,942.92
2018-10-02T11:14:14.218Z,942.82
2018-10-02T11:15:14.833Z,942.81
2018-10-02T11:16:15.101Z,942.76
2018-10-02T11:17:15.450Z,942.78
2018-10-02T11:18:15.965Z,942.77
2018-10-02T11:19:16.489Z,942.73
2018-10-02T11:20:17.554Z,942.77
2018-10-02T11:21:18.629Z,942.71
2018-10-02T11:22:19.706Z,942.76
2018-10-02T11:23:20.780Z,942.77
2018-10-02T11:24:21.349Z,942.75
2018-10-02T11:25:22.223Z,942.7
2018-10-02T11:26:23.379Z,942.72
2018-10-02T11:27:23.727Z,942.69
2018-10-02T11:28:24.803Z,942.7
2018-10-02T11:29:25.869Z,942.68
2018-10-02T11:30:26.950Z,942.66
2018-10-02T11:31:28.074Z,942.66
2018-10-02T11:32:28.980Z,942.59
2018-10-02T11:33:30.033Z,942.59
2018-10-02T11:34:30.655Z,942.56
2018-10-02T11:35:31.535Z,942.55
2018-10-02T11:36:31.947Z,942.57
2018-10-02T11:37:32.749Z,942.52
2018-10-02T11:38:34.180Z,942.58
2018-10-02T11:39:34.538Z,942.54
2018-10-02T11:40:35.327Z,942.55
2018-10-02T11:41:35.843Z,942.54
2018-10-02T11:42:36.657Z,942.49
2018-10-02T11:43:37.652Z,942.51
2018-10-02T11:44:38.578Z,942.47
2018-10-02T11:45:39.725Z,942.46
2018-10-02T11:46:40.243Z,942.44
2018-10-02T11:47:41.041Z,942.46
2018-10-02T11:48:42.112Z,942.37
2018-10-02T11:49:43.380Z,942.38
2018-10-02T11:50:44.095Z,942.36
2018-10-02T11:51:45.249Z,942.34
2018-10-02T11:52:46.054Z,942.33
2018-10-02T11:53:47.127Z,942.34
2018-10-02T11:54:47.650Z,942.34
2018-10-02T11:55:48.488Z,942.49
2018-10-02T11:56:48.822Z,942.47
2018-10-02T11:57:49.460Z,942.46
2018-10-02T11:58:50.541Z,942.46
2018-10-02T11:59:51.052Z,942.48
2018-10-02T12:00:52.165Z,942.46
2018-10-02T12:01:52.509Z,942.52
2018-10-02T12:02:53.583Z,942.49
2018-10-02T12:03:54.379Z,942.46
2018-10-02T12:04:55.067Z,942.45
2018-10-02T12:05:56.175Z,942.43
2018-10-02T12:06:57.550Z,942.39
2018-10-02T12:07:58.081Z,942.39
2018-10-02T12:08:58.926Z,942.4
2018-10-02T12:09:59.511Z,942.35
2018-10-02T12:11:00.132Z,942.34
2018-10-02T12:12:00.928Z,942.43
2018-10-02T12:13:01.987Z,942.45
2018-10-02T12:14:03.642Z,942.45
2018-10-02T12:15:04.497Z,942.49
2018-10-02T12:16:05.920Z,942.47
2018-10-02T12:17:06.556Z,942.43
2018-10-02T12:18:07.188Z,942.39
2018-10-02T12:19:07.983Z,942.39
2018-10-02T12:20:08.797Z,942.4
2018-10-02T12:21:09.888Z,942.37
2018-10-02T12:22:10.457Z,942.39
2018-10-02T12:23:10.975Z,942.28
2018-10-02T12:24:11.777Z,942.34
2018-10-02T12:25:12.607Z,942.26
2018-10-02T12:26:13.170Z,942.32
2018-10-02T12:27:14.464Z,942.27
2018-10-02T12:28:15.291Z,942.28
2018-10-02T12:29:16.529Z,942.23
2018-10-02T12:30:16.896Z,942.22
2018-10-02T12:31:18.158Z,942.24
2018-10-02T12:32:18.973Z,942.19
2018-10-02T12:33:19.784Z,942.19
2018-10-02T12:34:20.137Z,942.16
2018-10-02T12:35:20.939Z,942.15
2018-10-02T12:36:21.739Z,942.11
2018-10-02T12:37:22.824Z,942.11
2018-10-02T12:38:23.934Z,942.04
2018-10-02T12:39:25.680Z,942.02
2018-10-02T12:40:26.540Z,942.01
2018-10-02T12:41:28.066Z,941.97
2018-10-02T12:42:28.586Z,941.95
2018-10-02T12:43:29.383Z,941.94